Avon, Iowa
Current Conditions -  °F | °C
As of 9:54 PM on Wednesday 22 Oct 2014 (Local Time) from KDSM Reporting Station
Broken Clouds Broken Clouds  
Wind Chill: 14°   Ceiling: 8000
Heat Index: 14°   Visibility: 10mi
Dew Point:   Wind: 10mph
Humidity: 62%   Direction: 150°SSE
Pressure: 30.12"   Gusts: NA
Location:  41.4707°N, 93.4797°W
Report Text: KDSM 230254Z 15009KT 10SM BKN080 14/07 A3012 RMK AO2 SLP200 T01440072 51001
Loading
Personal Weather Stations






























Interactive Weather Map
Tropical Storm Tracking
New forecast layout! Learn more

10-Day Weather Forecast

Advertisements
Track Severe Weather on mobile